New Century, Kansas
Current Conditions -  °F | °C
As of 10:53 PM on Saturday 20 Dec 2014 (Local Time) from KIXD Reporting Station
Clear Clear  
Wind Chill: 27°   Ceiling: Unl
Heat Index: 34°   Visibility: 7mi
Dew Point: 32°   Wind: 8mph
Humidity: 92%   Direction: 180°S
Pressure: 30.13"   Gusts: NA
Location:  38.81°N, 94.93°W
Report Text: KIXD 210453Z AUTO 18007KT 7SM CLR 01/00 A3013 RMK AO2 SLP210 T00110000
Loading
Personal Weather Stations






























Interactive Weather Map New forecast layout! Learn more

10-Day Weather Forecast

Advertisements
Track Severe Weather on mobile